sensor_id;sensor_type;location;lat;lon;timestamp;temperature;humidity
45383;DHT22;42455;51.660;5.824;2023-05-07T00:00:34;17.1;91.5
45383;DHT22;42455;51.660;5.824;2023-05-07T00:05:40;17.1;91.5
45383;DHT22;42455;51.660;5.824;2023-05-07T00:10:47;17.0;91.5
45383;DHT22;42455;51.660;5.824;2023-05-07T00:15:53;16.9;91.5
45383;DHT22;42455;51.660;5.824;2023-05-07T00:20:59;16.9;92.0
45383;DHT22;42455;51.660;5.824;2023-05-07T00:26:05;16.8;92.0
45383;DHT22;42455;51.660;5.824;2023-05-07T00:31:12;16.8;92.0
45383;DHT22;42455;51.660;5.824;2023-05-07T00:36:18;16.8;92.0
45383;DHT22;42455;51.660;5.824;2023-05-07T00:41:24;16.7;92.0
45383;DHT22;42455;51.660;5.824;2023-05-07T00:46:32;16.7;92.0
45383;DHT22;42455;51.660;5.824;2023-05-07T00:51:36;16.7;92.0
45383;DHT22;42455;51.660;5.824;2023-05-07T00:56:43;16.6;92.0
45383;DHT22;42455;51.660;5.824;2023-05-07T01:06:56;16.6;92.5
45383;DHT22;42455;51.660;5.824;2023-05-07T01:12:02;16.6;92.5
45383;DHT22;42455;51.660;5.824;2023-05-07T01:17:07;16.6;92.5
45383;DHT22;42455;51.660;5.824;2023-05-07T01:22:14;16.6;92.5
45383;DHT22;42455;51.660;5.824;2023-05-07T01:27:19;16.5;93.0
45383;DHT22;42455;51.660;5.824;2023-05-07T01:32:38;16.5;93.0
45383;DHT22;42455;51.660;5.824;2023-05-07T01:37:32;16.5;93.0
45383;DHT22;42455;51.660;5.824;2023-05-07T01:42:38;16.5;93.0
45383;DHT22;42455;51.660;5.824;2023-05-07T01:47:44;16.5;93.0
45383;DHT22;42455;51.660;5.824;2023-05-07T01:52:51;16.5;93.5
45383;DHT22;42455;51.660;5.824;2023-05-07T01:57:56;16.5;93.5
45383;DHT22;42455;51.660;5.824;2023-05-07T02:03:02;16.5;93.5
45383;DHT22;42455;51.660;5.824;2023-05-07T02:08:09;16.5;93.5
45383;DHT22;42455;51.660;5.824;2023-05-07T02:13:15;16.5;93.5
45383;DHT22;42455;51.660;5.824;2023-05-07T02:18:21;16.5;93.5
45383;DHT22;42455;51.660;5.824;2023-05-07T02:23:27;16.5;93.5
45383;DHT22;42455;51.660;5.824;2023-05-07T02:28:33;16.5;94.0
45383;DHT22;42455;51.660;5.824;2023-05-07T02:33:40;16.5;94.0
45383;DHT22;42455;51.660;5.824;2023-05-07T02:38:46;16.5;94.0
45383;DHT22;42455;51.660;5.824;2023-05-07T02:43:52;16.5;94.0
45383;DHT22;42455;51.660;5.824;2023-05-07T02:48:58;16.5;94.0
45383;DHT22;42455;51.660;5.824;2023-05-07T02:54:04;16.5;94.0
45383;DHT22;42455;51.660;5.824;2023-05-07T02:59:11;16.5;94.0
45383;DHT22;42455;51.660;5.824;2023-05-07T03:04:16;16.5;94.0
45383;DHT22;42455;51.660;5.824;2023-05-07T03:09:22;16.5;94.0
45383;DHT22;42455;51.660;5.824;2023-05-07T03:14:27;16.5;94.0
45383;DHT22;42455;51.660;5.824;2023-05-07T03:19:34;16.5;94.5
45383;DHT22;42455;51.660;5.824;2023-05-07T03:24:39;16.5;94.5
45383;DHT22;42455;51.660;5.824;2023-05-07T03:29:45;16.5;94.5
45383;DHT22;42455;51.660;5.824;2023-05-07T03:34:51;16.5;94.5
45383;DHT22;42455;51.660;5.824;2023-05-07T03:39:57;16.5;94.5
45383;DHT22;42455;51.660;5.824;2023-05-07T03:45:04;16.5;94.5
45383;DHT22;42455;51.660;5.824;2023-05-07T03:50:10;16.4;94.5
45383;DHT22;42455;51.660;5.824;2023-05-07T03:55:16;16.5;94.5
45383;DHT22;42455;51.660;5.824;2023-05-07T04:00:22;16.5;94.5
45383;DHT22;42455;51.660;5.824;2023-05-07T04:05:29;16.5;94.5
45383;DHT22;42455;51.660;5.824;2023-05-07T04:10:35;16.5;94.5
45383;DHT22;42455;51.660;5.824;2023-05-07T04:15:41;16.5;95.0
45383;DHT22;42455;51.660;5.824;2023-05-07T04:20:47;16.4;95.0
45383;DHT22;42455;51.660;5.824;2023-05-07T04:25:53;16.4;95.0
45383;DHT22;42455;51.660;5.824;2023-05-07T04:30:59;16.4;95.0
45383;DHT22;42455;51.660;5.824;2023-05-07T04:36:06;16.4;95.0
45383;DHT22;42455;51.660;5.824;2023-05-07T04:41:12;16.4;95.5
45383;DHT22;42455;51.660;5.824;2023-05-07T04:46:18;16.4;95.5
45383;DHT22;42455;51.660;5.824;2023-05-07T04:51:24;16.4;95.5
45383;DHT22;42455;51.660;5.824;2023-05-07T04:56:30;16.4;95.5
45383;DHT22;42455;51.660;5.824;2023-05-07T05:01:37;16.4;95.5
45383;DHT22;42455;51.660;5.824;2023-05-07T05:06:43;16.4;95.5
45383;DHT22;42455;51.660;5.824;2023-05-07T05:11:48;16.5;95.5
45383;DHT22;42455;51.660;5.824;2023-05-07T05:16:54;16.5;95.5
45383;DHT22;42455;51.660;5.824;2023-05-07T05:22:00;16.5;96.0
45383;DHT22;42455;51.660;5.824;2023-05-07T05:27:06;16.5;96.0
45383;DHT22;42455;51.660;5.824;2023-05-07T05:32:12;16.5;96.0
45383;DHT22;42455;51.660;5.824;2023-05-07T05:37:18;16.6;96.0
45383;DHT22;42455;51.660;5.824;2023-05-07T05:42:24;16.6;96.0
45383;DHT22;42455;51.660;5.824;2023-05-07T05:47:31;16.7;96.5
45383;DHT22;42455;51.660;5.824;2023-05-07T05:52:37;16.8;96.5
45383;DHT22;42455;51.660;5.824;2023-05-07T05:57:43;16.9;96.5
45383;DHT22;42455;51.660;5.824;2023-05-07T06:02:49;17.0;96.5
45383;DHT22;42455;51.660;5.824;2023-05-07T06:07:55;17.1;96.5
45383;DHT22;42455;51.660;5.824;2023-05-07T06:13:02;17.1;96.5
45383;DHT22;42455;51.660;5.824;2023-05-07T06:18:08;17.2;96.0
45383;DHT22;42455;51.660;5.824;2023-05-07T06:23:14;17.2;96.0
45383;DHT22;42455;51.660;5.824;2023-05-07T06:28:20;17.3;96.5
45383;DHT22;42455;51.660;5.824;2023-05-07T06:33:27;17.3;96.0
45383;DHT22;42455;51.660;5.824;2023-05-07T06:38:33;17.4;96.0
45383;DHT22;42455;51.660;5.824;2023-05-07T06:43:39;17.4;96.0
45383;DHT22;42455;51.660;5.824;2023-05-07T06:48:45;17.5;96.0
45383;DHT22;42455;51.660;5.824;2023-05-07T06:53:51;17.6;96.0
45383;DHT22;42455;51.660;5.824;2023-05-07T06:58:59;17.7;96.0
45383;DHT22;42455;51.660;5.824;2023-05-07T07:04:04;17.8;96.0
45383;DHT22;42455;51.660;5.824;2023-05-07T07:09:09;17.9;96.0
45383;DHT22;42455;51.660;5.824;2023-05-07T07:14:15;18.0;96.0
45383;DHT22;42455;51.660;5.824;2023-05-07T07:19:22;18.1;95.5
45383;DHT22;42455;51.660;5.824;2023-05-07T07:24:28;18.2;95.5
45383;DHT22;42455;51.660;5.824;2023-05-07T07:29:34;18.2;95.5
45383;DHT22;42455;51.660;5.824;2023-05-07T07:34:40;18.3;95.5
45383;DHT22;42455;51.660;5.824;2023-05-07T07:39:46;18.4;95.5
45383;DHT22;42455;51.660;5.824;2023-05-07T07:44:52;18.5;95.5
45383;DHT22;42455;51.660;5.824;2023-05-07T07:49:59;18.5;95.0
45383;DHT22;42455;51.660;5.824;2023-05-07T07:55:05;18.6;95.0
45383;DHT22;42455;51.660;5.824;2023-05-07T08:00:12;18.7;95.0
45383;DHT22;42455;51.660;5.824;2023-05-07T08:05:17;18.7;95.0
45383;DHT22;42455;51.660;5.824;2023-05-07T08:10:23;18.8;94.5
45383;DHT22;42455;51.660;5.824;2023-05-07T08:15:30;18.9;94.5
45383;DHT22;42455;51.660;5.824;2023-05-07T08:20:36;19.0;94.5
45383;DHT22;42455;51.660;5.824;2023-05-07T08:25:42;19.2;94.5
45383;DHT22;42455;51.660;5.824;2023-05-07T08:30:48;19.3;94.5
45383;DHT22;42455;51.660;5.824;2023-05-07T08:35:55;19.5;94.5
45383;DHT22;42455;51.660;5.824;2023-05-07T08:41:01;19.7;94.0
45383;DHT22;42455;51.660;5.824;2023-05-07T08:46:09;19.9;93.5
45383;DHT22;42455;51.660;5.824;2023-05-07T08:51:16;20.1;93.5
45383;DHT22;42455;51.660;5.824;2023-05-07T08:56:18;20.2;93.0
45383;DHT22;42455;51.660;5.824;2023-05-07T09:01:25;20.4;92.5
45383;DHT22;42455;51.660;5.824;2023-05-07T09:06:30;20.7;92.5
45383;DHT22;42455;51.660;5.824;2023-05-07T09:11:36;21.0;92.5
45383;DHT22;42455;51.660;5.824;2023-05-07T09:16:41;21.2;92.0
45383;DHT22;42455;51.660;5.824;2023-05-07T09:21:48;21.5;91.5
45383;DHT22;42455;51.660;5.824;2023-05-07T09:26:54;21.7;91.0
45383;DHT22;42455;51.660;5.824;2023-05-07T09:32:00;22.0;90.5
45383;DHT22;42455;51.660;5.824;2023-05-07T09:37:06;22.2;90.5
45383;DHT22;42455;51.660;5.824;2023-05-07T09:42:13;22.5;89.5
45383;DHT22;42455;51.660;5.824;2023-05-07T09:47:20;22.7;88.5
45383;DHT22;42455;51.660;5.824;2023-05-07T09:52:25;22.7;88.0
45383;DHT22;42455;51.660;5.824;2023-05-07T09:57:32;22.9;87.5
45383;DHT22;42455;51.660;5.824;2023-05-07T10:02:39;22.9;87.0
45383;DHT22;42455;51.660;5.824;2023-05-07T10:07:44;22.9;86.0
45383;DHT22;42455;51.660;5.824;2023-05-07T10:12:50;22.9;85.5
45383;DHT22;42455;51.660;5.824;2023-05-07T10:17:56;22.9;85.5
45383;DHT22;42455;51.660;5.824;2023-05-07T10:23:04;22.8;85.0
45383;DHT22;42455;51.660;5.824;2023-05-07T10:28:10;22.8;84.5
45383;DHT22;42455;51.660;5.824;2023-05-07T10:33:16;22.8;85.0
45383;DHT22;42455;51.660;5.824;2023-05-07T10:38:21;22.8;85.0
45383;DHT22;42455;51.660;5.824;2023-05-07T10:43:37;22.9;85.0
45383;DHT22;42455;51.660;5.824;2023-05-07T10:48:33;23.0;85.0
45383;DHT22;42455;51.660;5.824;2023-05-07T10:53:39;23.1;84.5
45383;DHT22;42455;51.660;5.824;2023-05-07T10:58:46;23.2;84.0
45383;DHT22;42455;51.660;5.824;2023-05-07T11:04:15;23.4;84.0
45383;DHT22;42455;51.660;5.824;2023-05-07T11:08:58;23.5;83.5
45383;DHT22;42455;51.660;5.824;2023-05-07T11:14:02;23.6;83.0
45383;DHT22;42455;51.660;5.824;2023-05-07T11:19:08;23.7;82.5
45383;DHT22;42455;51.660;5.824;2023-05-07T11:24:16;23.8;82.0
45383;DHT22;42455;51.660;5.824;2023-05-07T11:29:21;23.8;81.5
45383;DHT22;42455;51.660;5.824;2023-05-07T11:34:27;23.9;81.5
45383;DHT22;42455;51.660;5.824;2023-05-07T11:39:33;24.0;80.5
45383;DHT22;42455;51.660;5.824;2023-05-07T11:44:47;24.0;80.0
45383;DHT22;42455;51.660;5.824;2023-05-07T11:49:46;24.1;79.5
45383;DHT22;42455;51.660;5.824;2023-05-07T11:54:53;24.2;79.5
45383;DHT22;42455;51.660;5.824;2023-05-07T11:59:59;24.3;79.5
45383;DHT22;42455;51.660;5.824;2023-05-07T12:05:05;24.5;78.5
45383;DHT22;42455;51.660;5.824;2023-05-07T12:10:11;24.6;78.0
45383;DHT22;42455;51.660;5.824;2023-05-07T12:15:17;24.6;77.0
45383;DHT22;42455;51.660;5.824;2023-05-07T12:20:23;24.7;77.0
45383;DHT22;42455;51.660;5.824;2023-05-07T12:25:30;24.7;77.0
45383;DHT22;42455;51.660;5.824;2023-05-07T12:30:36;24.8;76.5
45383;DHT22;42455;51.660;5.824;2023-05-07T12:35:42;24.8;76.0
45383;DHT22;42455;51.660;5.824;2023-05-07T12:40:49;24.8;75.5
45383;DHT22;42455;51.660;5.824;2023-05-07T12:45:57;24.7;74.5
45383;DHT22;42455;51.660;5.824;2023-05-07T12:51:01;24.6;74.5
45383;DHT22;42455;51.660;5.824;2023-05-07T12:56:06;24.5;74.5
45383;DHT22;42455;51.660;5.824;2023-05-07T13:01:12;24.4;74.5
45383;DHT22;42455;51.660;5.824;2023-05-07T13:11:24;24.1;75.0
45383;DHT22;42455;51.660;5.824;2023-05-07T13:16:29;24.0;75.0
45383;DHT22;42455;51.660;5.824;2023-05-07T13:21:36;23.8;75.5
45383;DHT22;42455;51.660;5.824;2023-05-07T13:26:42;23.7;75.5
45383;DHT22;42455;51.660;5.824;2023-05-07T13:31:48;23.6;76.0
45383;DHT22;42455;51.660;5.824;2023-05-07T13:36:54;23.6;76.5
45383;DHT22;42455;51.660;5.824;2023-05-07T13:42:00;23.5;76.5
45383;DHT22;42455;51.660;5.824;2023-05-07T13:47:07;23.4;76.5
45383;DHT22;42455;51.660;5.824;2023-05-07T13:52:13;23.3;77.0
45383;DHT22;42455;51.660;5.824;2023-05-07T13:57:19;23.2;77.0
45383;DHT22;42455;51.660;5.824;2023-05-07T14:02:25;23.1;76.5
45383;DHT22;42455;51.660;5.824;2023-05-07T14:07:31;22.7;75.5
45383;DHT22;42455;51.660;5.824;2023-05-07T14:12:38;22.3;76.5
45383;DHT22;42455;51.660;5.824;2023-05-07T14:17:44;21.8;77.0
45383;DHT22;42455;51.660;5.824;2023-05-07T14:22:50;21.4;78.0
45383;DHT22;42455;51.660;5.824;2023-05-07T14:27:56;21.0;79.0
45383;DHT22;42455;51.660;5.824;2023-05-07T14:33:02;20.6;80.0
45383;DHT22;42455;51.660;5.824;2023-05-07T14:38:09;20.3;81.0
45383;DHT22;42455;51.660;5.824;2023-05-07T14:43:15;20.0;82.0
45383;DHT22;42455;51.660;5.824;2023-05-07T14:48:21;19.7;83.0
45383;DHT22;42455;51.660;5.824;2023-05-07T14:53:27;19.5;84.0
45383;DHT22;42455;51.660;5.824;2023-05-07T14:58:34;19.2;85.0
45383;DHT22;42455;51.660;5.824;2023-05-07T15:03:39;19.1;85.5
45383;DHT22;42455;51.660;5.824;2023-05-07T15:08:45;18.9;86.5
45383;DHT22;42455;51.660;5.824;2023-05-07T15:13:50;18.8;87.0
45383;DHT22;42455;51.660;5.824;2023-05-07T15:18:56;18.7;87.5
45383;DHT22;42455;51.660;5.824;2023-05-07T15:24:03;18.6;88.5
45383;DHT22;42455;51.660;5.824;2023-05-07T15:29:09;18.5;89.0
45383;DHT22;42455;51.660;5.824;2023-05-07T15:34:15;18.5;89.5
45383;DHT22;42455;51.660;5.824;2023-05-07T15:39:21;18.4;90.0
45383;DHT22;42455;51.660;5.824;2023-05-07T15:44:27;18.4;90.0
45383;DHT22;42455;51.660;5.824;2023-05-07T15:49:34;18.4;90.5
45383;DHT22;42455;51.660;5.824;2023-05-07T15:54:40;18.4;90.5
45383;DHT22;42455;51.660;5.824;2023-05-07T15:59:46;18.4;91.0
45383;DHT22;42455;51.660;5.824;2023-05-07T16:04:52;18.4;91.0
45383;DHT22;42455;51.660;5.824;2023-05-07T16:09:58;18.5;91.5
45383;DHT22;42455;51.660;5.824;2023-05-07T16:15:05;18.5;91.5
45383;DHT22;42455;51.660;5.824;2023-05-07T16:20:11;18.5;91.5
45383;DHT22;42455;51.660;5.824;2023-05-07T16:25:16;18.6;91.5
45383;DHT22;42455;51.660;5.824;2023-05-07T16:30:22;18.6;92.0
45383;DHT22;42455;51.660;5.824;2023-05-07T16:35:28;18.6;92.0
45383;DHT22;42455;51.660;5.824;2023-05-07T16:40:36;18.6;92.5
45383;DHT22;42455;51.660;5.824;2023-05-07T16:45:41;18.7;92.5
45383;DHT22;42455;51.660;5.824;2023-05-07T16:50:47;18.7;93.0
45383;DHT22;42455;51.660;5.824;2023-05-07T16:55:53;18.8;93.0
45383;DHT22;42455;51.660;5.824;2023-05-07T17:00:59;18.9;93.0
45383;DHT22;42455;51.660;5.824;2023-05-07T17:06:05;18.9;93.0
45383;DHT22;42455;51.660;5.824;2023-05-07T17:11:11;18.9;93.0
45383;DHT22;42455;51.660;5.824;2023-05-07T17:16:17;18.9;93.0
45383;DHT22;42455;51.660;5.824;2023-05-07T17:21:23;18.9;93.0
45383;DHT22;42455;51.660;5.824;2023-05-07T17:26:30;18.9;93.0
45383;DHT22;42455;51.660;5.824;2023-05-07T17:31:36;18.8;93.0
45383;DHT22;42455;51.660;5.824;2023-05-07T17:36:42;18.8;93.5
45383;DHT22;42455;51.660;5.824;2023-05-07T17:41:48;18.8;93.5
45383;DHT22;42455;51.660;5.824;2023-05-07T17:46:54;18.8;93.5
45383;DHT22;42455;51.660;5.824;2023-05-07T17:52:01;18.8;93.5
45383;DHT22;42455;51.660;5.824;2023-05-07T17:57:07;18.7;93.5
45383;DHT22;42455;51.660;5.824;2023-05-07T18:02:13;18.7;93.5
45383;DHT22;42455;51.660;5.824;2023-05-07T18:07:19;18.7;93.5
45383;DHT22;42455;51.660;5.824;2023-05-07T18:12:26;18.7;93.5
45383;DHT22;42455;51.660;5.824;2023-05-07T18:17:32;18.7;93.5
45383;DHT22;42455;51.660;5.824;2023-05-07T18:22:38;18.7;94.0
45383;DHT22;42455;51.660;5.824;2023-05-07T18:27:44;18.7;93.5
45383;DHT22;42455;51.660;5.824;2023-05-07T18:32:50;18.7;94.0
45383;DHT22;42455;51.660;5.824;2023-05-07T18:37:57;18.7;94.0
45383;DHT22;42455;51.660;5.824;2023-05-07T18:43:03;18.7;94.0
45383;DHT22;42455;51.660;5.824;2023-05-07T18:48:08;18.7;94.0
45383;DHT22;42455;51.660;5.824;2023-05-07T18:53:14;18.7;94.0
45383;DHT22;42455;51.660;5.824;2023-05-07T18:58:20;18.7;94.0
45383;DHT22;42455;51.660;5.824;2023-05-07T19:03:28;18.7;94.0
45383;DHT22;42455;51.660;5.824;2023-05-07T19:08:33;18.6;94.0
45383;DHT22;42455;51.660;5.824;2023-05-07T19:13:39;18.6;94.0
45383;DHT22;42455;51.660;5.824;2023-05-07T19:18:46;18.6;94.0
45383;DHT22;42455;51.660;5.824;2023-05-07T19:23:51;18.5;94.0
45383;DHT22;42455;51.660;5.824;2023-05-07T19:28:58;18.5;94.0
45383;DHT22;42455;51.660;5.824;2023-05-07T19:34:04;18.5;94.0
45383;DHT22;42455;51.660;5.824;2023-05-07T19:39:10;18.5;94.0
45383;DHT22;42455;51.660;5.824;2023-05-07T19:44:16;18.4;94.5
45383;DHT22;42455;51.660;5.824;2023-05-07T19:49:23;18.4;94.5
45383;DHT22;42455;51.660;5.824;2023-05-07T19:54:29;18.4;94.5
45383;DHT22;42455;51.660;5.824;2023-05-07T19:59:35;18.4;94.5
45383;DHT22;42455;51.660;5.824;2023-05-07T20:04:41;18.4;94.5
45383;DHT22;42455;51.660;5.824;2023-05-07T20:09:47;18.3;94.5
45383;DHT22;42455;51.660;5.824;2023-05-07T20:14:53;18.3;94.5
45383;DHT22;42455;51.660;5.824;2023-05-07T20:20:00;18.3;94.5
45383;DHT22;42455;51.660;5.824;2023-05-07T20:25:07;18.3;94.5
45383;DHT22;42455;51.660;5.824;2023-05-07T20:30:12;18.3;95.0
45383;DHT22;42455;51.660;5.824;2023-05-07T20:35:17;18.2;95.0
45383;DHT22;42455;51.660;5.824;2023-05-07T20:40:24;18.2;95.0
45383;DHT22;42455;51.660;5.824;2023-05-07T20:45:29;18.2;95.0
45383;DHT22;42455;51.660;5.824;2023-05-07T20:50:35;18.2;95.0
45383;DHT22;42455;51.660;5.824;2023-05-07T20:55:41;18.2;95.0
45383;DHT22;42455;51.660;5.824;2023-05-07T21:00:47;18.1;95.5
45383;DHT22;42455;51.660;5.824;2023-05-07T21:05:55;18.1;95.5
45383;DHT22;42455;51.660;5.824;2023-05-07T21:11:00;18.1;95.5
45383;DHT22;42455;51.660;5.824;2023-05-07T21:21:13;18.0;95.5
45383;DHT22;42455;51.660;5.824;2023-05-07T21:26:19;18.0;95.5
45383;DHT22;42455;51.660;5.824;2023-05-07T21:31:25;18.0;95.5
45383;DHT22;42455;51.660;5.824;2023-05-07T21:36:31;17.9;96.0
45383;DHT22;42455;51.660;5.824;2023-05-07T21:41:37;17.9;96.0
45383;DHT22;42455;51.660;5.824;2023-05-07T21:46:43;17.9;96.0
45383;DHT22;42455;51.660;5.824;2023-05-07T21:51:50;17.8;96.0
45383;DHT22;42455;51.660;5.824;2023-05-07T21:56:56;17.8;96.0
45383;DHT22;42455;51.660;5.824;2023-05-07T22:02:02;17.7;96.0
45383;DHT22;42455;51.660;5.824;2023-05-07T22:07:08;17.7;96.5
45383;DHT22;42455;51.660;5.824;2023-05-07T22:12:14;17.7;96.5
45383;DHT22;42455;51.660;5.824;2023-05-07T22:17:21;17.6;96.5
45383;DHT22;42455;51.660;5.824;2023-05-07T22:22:27;17.6;96.5
45383;DHT22;42455;51.660;5.824;2023-05-07T22:27:33;17.6;96.5
45383;DHT22;42455;51.660;5.824;2023-05-07T22:32:40;17.6;96.5
45383;DHT22;42455;51.660;5.824;2023-05-07T22:37:44;17.6;96.5
45383;DHT22;42455;51.660;5.824;2023-05-07T22:42:51;17.6;96.5
45383;DHT22;42455;51.660;5.824;2023-05-07T22:47:56;17.6;97.0
45383;DHT22;42455;51.660;5.824;2023-05-07T22:53:02;17.6;97.0
45383;DHT22;42455;51.660;5.824;2023-05-07T22:58:07;17.6;97.0
45383;DHT22;42455;51.660;5.824;2023-05-07T23:03:13;17.6;97.0
45383;DHT22;42455;51.660;5.824;2023-05-07T23:08:20;17.6;97.0
45383;DHT22;42455;51.660;5.824;2023-05-07T23:13:26;17.5;97.0
45383;DHT22;42455;51.660;5.824;2023-05-07T23:18:32;17.5;97.0
45383;DHT22;42455;51.660;5.824;2023-05-07T23:23:38;17.5;97.0
45383;DHT22;42455;51.660;5.824;2023-05-07T23:28:45;17.5;97.0
45383;DHT22;42455;51.660;5.824;2023-05-07T23:33:51;17.5;97.0
45383;DHT22;42455;51.660;5.824;2023-05-07T23:38:57;17.5;97.0
45383;DHT22;42455;51.660;5.824;2023-05-07T23:44:03;17.4;97.0
45383;DHT22;42455;51.660;5.824;2023-05-07T23:49:09;17.4;97.0
45383;DHT22;42455;51.660;5.824;2023-05-07T23:54:16;17.4;97.0
45383;DHT22;42455;51.660;5.824;2023-05-07T23:59:22;17.4;97.0
